Christina G — ZCXO5 — position and weather

sailwx.info

Track history (hours):
 
Tides and Currents Weather Stations Pressure Air Temp Water Temp Dewpoint Dewpoint Depression Visibility Wind Speed Wind Dir Waves Ship Positions

Christina G

Last reported at 2016-Oct-21 09:33 UTC. Time now 2016-Dec-09 13:38 UTC.
Position N 39°32' E 002°38'.
Warning: this ship's position is 49 days out of date.

Length 33 m; draft 2.5 m.

MMSI: 319032100.

Date/timePositionNaut miles runAvg speedWind from/ knotsBaromVisibWave heightAir tempDewpointWater temp
2016-Oct-21 09:33N 39°32' E 002°38'  
2016-Oct-15 17:33N 39°34' E 002°38'8 7.4
2016-Oct-15 16:33N 39°28' E 002°31'8 0.3
2016-Oct-14 11:26N 39°34' E 002°38'0 0.0
2016-Oct-14 10:33N 39°34' E 002°38'14 0.5
2016-Oct-13 06:33N 39°48' E 002°41'0 0.0
2016-Oct-13 03:33N 39°48' E 002°41'0 0.0
2016-Oct-13 01:33N 39°48' E 002°41'0 0.0
2016-Oct-13 00:33N 39°48' E 002°41'0 0.0
2016-Oct-12 22:33N 39°48' E 002°41'0 0.1
2016-Oct-12 21:33N 39°48' E 002°41'0 0.0
2016-Oct-12 19:33N 39°48' E 002°41'0 0.0
2016-Oct-12 18:33N 39°48' E 002°41'1 1.5
2016-Oct-12 17:33N 39°49' E 002°42'1 0.1
2016-Oct-11 17:33N 39°48' E 002°42'  
Track history (hours):
 
Tides and Currents Weather Stations Pressure Air Temp Water Temp Dewpoint Dewpoint Depression Visibility Wind Speed Wind Dir Waves Ship Positions

Christina G

Last reported at 2016-Oct-21 09:33 UTC. Time now 2016-Dec-09 13:38 UTC.
Position N 39°32' E 002°38'.
Warning: this ship's position is 49 days out of date.

Length 33 m; draft 2.5 m.

MMSI: 319032100.

Date/timePositionNaut miles runAvg speedWind from/ knotsBaromVisibWave heightAir tempDewpointWater temp
2016-Oct-21 09:33N 39°32' E 002°38'  
2016-Oct-15 17:33N 39°34' E 002°38'8 7.4
2016-Oct-15 16:33N 39°28' E 002°31'8 0.3
2016-Oct-14 11:26N 39°34' E 002°38'0 0.0
2016-Oct-14 10:33N 39°34' E 002°38'14 0.5
2016-Oct-13 06:33N 39°48' E 002°41'0 0.0
2016-Oct-13 03:33N 39°48' E 002°41'0 0.0
2016-Oct-13 01:33N 39°48' E 002°41'0 0.0
2016-Oct-13 00:33N 39°48' E 002°41'0 0.0
2016-Oct-12 22:33N 39°48' E 002°41'0 0.1
2016-Oct-12 21:33N 39°48' E 002°41'0 0.0
2016-Oct-12 19:33N 39°48' E 002°41'0 0.0
2016-Oct-12 18:33N 39°48' E 002°41'1 1.5
2016-Oct-12 17:33N 39°49' E 002°42'1 0.1
2016-Oct-11 17:33N 39°48' E 002°42'  

Dump ship's entire track history